Time;durP1;ratioP1;P1;durP2;ratioP2;P2;SDS_P1;SDS_P2;PMS_P1;PMS_P2;Temp;Humidity;BMP_temperature;BMP_pressure;BME280_temperature;BME280_humidity;BME280_pressure;Samples;Min_cycle;Max_cycle;Signal;HPM_P1;HPM_P2
2023/08/19 00:01:52;;;;;;;;;;;;;;;18.81;71.96;101671.91;4926327;29;2502;-79
2023/08/19 00:04:44;;;;;;;;;;;;;;;18.83;71.85;101678.78;4930302;29;2590;-80
2023/08/19 00:07:36;;;;;;;;;;;;;;;18.81;71.79;101686.38;4930602;29;2131;-78
2023/08/19 00:10:28;;;;;;;;;;;;;;;18.82;71.75;101687.22;4928642;29;2390;-79
2023/08/19 00:13:20;;;;;;;;;;;;;;;18.80;71.65;101684.75;4921238;29;3048;-80
2023/08/19 00:16:12;;;;;;;;;;;;;;;18.80;71.89;101682.00;4920256;29;2590;-80
2023/08/19 00:19:04;;;;;;;;;;;;;;;18.80;71.72;101676.56;4921019;29;2663;-78
2023/08/19 00:21:56;;;;;;;;;;;;;;;18.80;71.64;101673.81;4918493;29;2749;-80
2023/08/19 00:24:48;;;;;;;;;;;;;;;18.79;71.71;101672.16;4919137;29;2914;-79
2023/08/19 00:27:40;;;;;;;;;;;;;;;18.79;71.92;101674.88;4919126;29;2679;-79
2023/08/19 00:30:32;;;;;;;;;;;;;;;18.79;71.71;101682.25;4922965;29;2551;-80
2023/08/19 00:33:24;;;;;;;;;;;;;;;18.78;71.71;101683.34;4918801;29;2675;-79
2023/08/19 00:36:16;;;;;;;;;;;;;;;18.78;71.69;101678.69;4922102;29;2482;-79
2023/08/19 00:39:08;;;;;;;;;;;;;;;18.77;71.73;101673.50;4926768;29;2813;-80
2023/08/19 00:42:00;;;;;;;;;;;;;;;18.77;71.62;101673.50;4928413;29;2707;-79
2023/08/19 00:44:52;;;;;;;;;;;;;;;18.76;71.76;101669.91;4921512;29;2669;-79
2023/08/19 00:47:44;;;;;;;;;;;;;;;18.76;71.60;101667.19;4918756;29;2964;-79
2023/08/19 00:50:36;;;;;;;;;;;;;;;18.75;71.61;101651.91;4934025;29;2530;-79
2023/08/19 00:53:28;;;;;;;;;;;;;;;18.76;71.47;101650.00;4931803;29;2307;-78
2023/08/19 00:56:20;;;;;;;;;;;;;;;18.75;71.60;101651.09;4934758;29;2589;-79
2023/08/19 00:59:12;;;;;;;;;;;;;;;18.74;71.60;101644.81;4932651;29;2542;-79
2023/08/19 01:02:04;;;;;;;;;;;;;;;18.74;71.59;101644.81;4933830;29;2649;-79
2023/08/19 01:04:56;;;;;;;;;;;;;;;18.74;71.48;101643.97;4933954;29;2658;-80
2023/08/19 01:07:48;;;;;;;;;;;;;;;18.74;71.52;101638.53;4933393;29;2473;-80
2023/08/19 01:10:40;;;;;;;;;;;;;;;18.73;71.67;101636.81;4936777;29;2455;-79
2023/08/19 01:13:32;;;;;;;;;;;;;;;18.73;71.54;101639.56;4935919;29;1872;-78
2023/08/19 01:16:24;;;;;;;;;;;;;;;18.72;71.51;101636.00;4932932;29;2617;-79
2023/08/19 01:19:16;;;;;;;;;;;;;;;18.72;71.55;101632.44;4937047;29;2546;-80
2023/08/19 01:22:09;;;;;;;;;;;;;;;18.72;71.51;101637.91;4934601;29;2561;-81
2023/08/19 01:25:01;;;;;;;;;;;;;;;18.71;71.53;101631.63;4933341;29;2532;-79
2023/08/19 01:27:52;;;;;;;;;;;;;;;18.70;71.45;101634.59;4933166;29;2730;-81
2023/08/19 01:30:44;;;;;;;;;;;;;;;18.69;71.80;101625.56;4932787;29;2646;-79
2023/08/19 01:33:36;;;;;;;;;;;;;;;18.70;71.48;101626.41;4933999;29;2469;-80
2023/08/19 01:36:28;;;;;;;;;;;;;;;18.69;71.65;101628.31;4934835;29;1608;-79
2023/08/19 01:39:20;;;;;;;;;;;;;;;18.69;71.42;101627.50;4919460;29;2608;-78
2023/08/19 01:42:12;;;;;;;;;;;;;;;18.68;71.73;101626.66;4927073;29;2641;-79
2023/08/19 01:45:04;;;;;;;;;;;;;;;18.67;71.56;101625.00;4919648;29;2577;-80
2023/08/19 01:47:56;;;;;;;;;;;;;;;18.67;71.20;101627.72;4920258;29;2657;-80
2023/08/19 01:50:48;;;;;;;;;;;;;;;18.68;71.40;101625.81;4919903;29;2708;-80
2023/08/19 01:53:40;;;;;;;;;;;;;;;18.66;71.50;101625.25;4921891;29;3038;-78
2023/08/19 01:56:32;;;;;;;;;;;;;;;18.66;71.28;101619.78;4919220;29;2908;-81
2023/08/19 01:59:24;;;;;;;;;;;;;;;18.66;71.33;101617.88;4920551;29;2650;-80
2023/08/19 02:02:16;;;;;;;;;;;;;;;18.65;71.41;101608.06;4919528;29;2608;-79
2023/08/19 02:05:12;;;;;;;;;;;;;;;18.66;71.50;101614.34;4919929;29;3038;-80
2023/08/19 02:08:04;;;;;;;;;;;;;;;18.64;71.72;101611.03;4922238;29;2785;-80
2023/08/19 02:10:56;;;;;;;;;;;;;;;18.64;71.52;101611.84;4918488;29;2596;-81
2023/08/19 02:13:48;;;;;;;;;;;;;;;18.64;71.41;101605.56;4918049;29;2553;-80
2023/08/19 02:16:40;;;;;;;;;;;;;;;18.64;71.24;101606.38;4927562;29;2804;-78
2023/08/19 02:19:32;;;;;;;;;;;;;;;18.65;71.58;101601.75;4916555;29;2704;-78
2023/08/19 02:22:24;;;;;;;;;;;;;;;18.64;71.25;101597.38;4933396;29;2499;-79
2023/08/19 02:25:16;;;;;;;;;;;;;;;18.63;71.16;101593.84;4933870;29;2597;-79
2023/08/19 02:28:08;;;;;;;;;;;;;;;18.63;71.25;101595.75;4934505;29;2672;-79
2023/08/19 02:31:00;;;;;;;;;;;;;;;18.61;71.19;101594.06;4931578;29;2550;-80
2023/08/19 02:33:52;;;;;;;;;;;;;;;18.61;71.54;101598.69;4925870;29;2632;-80
2023/08/19 02:36:44;;;;;;;;;;;;;;;18.61;71.26;101594.06;4932611;29;1775;-78
2023/08/19 02:39:36;;;;;;;;;;;;;;;18.59;71.40;101590.78;4933873;29;1840;-79
2023/08/19 02:42:28;;;;;;;;;;;;;;;18.60;71.06;101595.16;4933515;29;2197;-79
2023/08/19 02:45:20;;;;;;;;;;;;;;;18.60;71.22;101583.41;4932908;29;2588;-78
2023/08/19 02:48:12;;;;;;;;;;;;;;;18.60;71.33;101580.69;4930972;29;2076;-79
2023/08/19 02:51:04;;;;;;;;;;;;;;;18.58;71.51;101580.94;4932574;29;2254;-79
2023/08/19 02:53:56;;;;;;;;;;;;;;;18.58;71.08;101585.56;4919335;29;2723;-79
2023/08/19 02:56:48;;;;;;;;;;;;;;;18.57;71.04;101581.19;4919566;29;2948;-80
2023/08/19 02:59:40;;;;;;;;;;;;;;;18.58;71.11;101570.00;4917606;29;2756;-80
2023/08/19 03:02:32;;;;;;;;;;;;;;;18.57;71.22;101568.38;4921723;29;2734;-78
2023/08/19 03:05:24;;;;;;;;;;;;;;;18.57;71.34;101571.09;4916892;29;2779;-77
2023/08/19 03:08:16;;;;;;;;;;;;;;;18.57;71.35;101567.56;4916520;29;2588;-79
2023/08/19 03:11:08;;;;;;;;;;;;;;;18.57;71.08;101562.09;4919908;29;2726;-79
2023/08/19 03:14:00;;;;;;;;;;;;;;;18.56;71.21;101552.25;4919004;29;2667;-78
2023/08/19 03:16:54;;;;;;;;;;;;;;;18.56;71.07;101560.41;4920680;29;2837;-80
2023/08/19 03:19:46;;;;;;;;;;;;;;;18.55;71.00;101562.31;4919029;29;3017;-80
2023/08/19 03:22:38;;;;;;;;;;;;;;;18.55;71.05;101558.78;4926182;29;2616;-79
2023/08/19 03:25:30;;;;;;;;;;;;;;;18.54;70.94;101562.59;4933351;29;1974;-79
2023/08/19 03:28:22;;;;;;;;;;;;;;;18.54;71.18;101557.97;4932106;29;1895;-80
2023/08/19 03:31:14;;;;;;;;;;;;;;;18.53;71.25;101561.78;4933801;29;2552;-79
2023/08/19 03:34:06;;;;;;;;;;;;;;;18.53;71.21;101555.47;4934267;29;2589;-80
2023/08/19 03:36:58;;;;;;;;;;;;;;;18.51;71.01;101563.91;4934214;29;2573;-79
2023/08/19 03:39:50;;;;;;;;;;;;;;;18.53;71.12;101574.56;4932571;29;1909;-79
2023/08/19 03:42:42;;;;;;;;;;;;;;;18.51;70.97;101566.63;4934414;29;2621;-77
2023/08/19 03:45:34;;;;;;;;;;;;;;;18.51;71.12;101579.47;4931518;29;2549;-78
2023/08/19 03:48:26;;;;;;;;;;;;;;;18.51;71.10;101579.47;4925730;29;2589;-78
2023/08/19 03:51:18;;;;;;;;;;;;;;;18.51;71.14;101585.72;4918024;29;2624;-80
2023/08/19 03:54:10;;;;;;;;;;;;;;;18.51;71.35;101583.00;4914957;29;2572;-80
2023/08/19 03:57:02;;;;;;;;;;;;;;;18.51;71.27;101590.38;4917407;29;2581;-79
2023/08/19 04:00:02;;;;;;;;;;;;;;;18.50;71.16;101592.28;4919918;29;2628;-78
2023/08/19 04:02:54;;;;;;;;;;;;;;;18.49;71.06;101592.50;4919203;29;2667;-78
2023/08/19 04:05:46;;;;;;;;;;;;;;;18.49;71.04;101590.59;4931974;29;1903;-80
2023/08/19 04:08:38;;;;;;;;;;;;;;;18.48;70.92;101586.22;4915251;29;2701;-79
2023/08/19 04:11:30;;;;;;;;;;;;;;;18.49;71.12;101606.16;4919804;29;2677;-79
2023/08/19 04:14:22;;;;;;;;;;;;;;;18.48;71.14;101597.13;4917992;29;2967;-79
2023/08/19 04:17:14;;;;;;;;;;;;;;;18.48;70.88;101599.03;4917718;29;2714;-78
2023/08/19 04:20:11;;;;;;;;;;;;;;;18.47;71.12;101600.94;4918838;29;2605;-79
2023/08/19 04:23:03;;;;;;;;;;;;;;;18.47;70.84;101602.81;4919105;29;2793;-78
2023/08/19 04:25:55;;;;;;;;;;;;;;;18.46;71.27;101601.19;4922565;29;2599;-80
2023/08/19 04:28:47;;;;;;;;;;;;;;;18.47;71.12;101611.00;4917141;29;3006;-79
2023/08/19 04:31:40;;;;;;;;;;;;;;;18.47;71.03;101616.47;4918254;29;2652;-79
2023/08/19 04:34:32;;;;;;;;;;;;;;;18.46;71.07;101610.19;4918378;29;2687;-78
2023/08/19 04:37:24;;;;;;;;;;;;;;;18.45;71.09;101597.63;4915869;29;2715;-79
2023/08/19 04:40:16;;;;;;;;;;;;;;;18.46;71.05;101595.72;4915137;29;2560;-77
2023/08/19 04:43:08;;;;;;;;;;;;;;;18.44;70.91;101590.50;4930293;29;2539;-79
2023/08/19 04:46:00;;;;;;;;;;;;;;;18.45;71.09;101594.09;4916143;29;3067;-80
2023/08/19 04:48:52;;;;;;;;;;;;;;;18.44;70.91;101586.97;4919625;29;2975;-79
2023/08/19 04:51:44;;;;;;;;;;;;;;;18.44;71.14;101589.69;4919782;29;2592;-78
2023/08/19 04:54:36;;;;;;;;;;;;;;;18.43;70.97;101585.31;4915980;29;2585;-80
2023/08/19 04:57:28;;;;;;;;;;;;;;;18.42;70.72;101573.59;4930245;29;2543;-77
2023/08/19 05:00:20;;;;;;;;;;;;;;;18.43;70.73;101579.84;4928588;29;2622;-77
2023/08/19 05:03:12;;;;;;;;;;;;;;;18.42;71.12;101579.03;4931156;29;2682;-79
2023/08/19 05:06:04;;;;;;;;;;;;;;;18.42;70.91;101573.59;4922463;29;2816;-77
2023/08/19 05:08:56;;;;;;;;;;;;;;;18.42;70.91;101579.03;4917106;29;2947;-78
2023/08/19 05:11:48;;;;;;;;;;;;;;;18.41;70.83;101582.81;4925176;29;3136;-77
2023/08/19 05:14:40;;;;;;;;;;;;;;;18.42;70.67;101586.41;4930789;29;2581;-78
2023/08/19 05:17:32;;;;;;;;;;;;;;;18.41;70.86;101579.28;4927699;29;2356;-77
2023/08/19 05:20:24;;;;;;;;;;;;;;;18.40;70.71;101583.91;4931217;29;1915;-78
2023/08/19 05:23:16;;;;;;;;;;;;;;;18.42;70.91;101597.31;4932630;29;2539;-80
2023/08/19 05:26:08;;;;;;;;;;;;;;;18.39;70.74;101588.53;4940121;29;2555;-78
2023/08/19 05:29:00;;;;;;;;;;;;;;;18.40;70.77;101586.63;4945285;29;1402;-79
2023/08/19 05:31:52;;;;;;;;;;;;;;;18.40;70.62;101578.44;4937032;29;1074;-77
2023/08/19 05:34:43;;;;;;;;;;;;;;;18.38;70.76;101573.25;4939920;29;1064;-78
2023/08/19 05:37:35;;;;;;;;;;;;;;;18.38;70.90;101575.97;4931030;29;1488;-78
2023/08/19 05:40:27;;;;;;;;;;;;;;;18.39;71.00;101588.53;4935655;29;1608;-79
2023/08/19 05:43:19;;;;;;;;;;;;;;;18.39;70.85;101590.44;4936804;29;2097;-78
2023/08/19 05:46:11;;;;;;;;;;;;;;;18.36;70.84;101583.56;4935493;29;1894;-79
2023/08/19 05:49:03;;;;;;;;;;;;;;;18.38;70.63;101592.34;4929682;29;2923;-78
2023/08/19 05:51:55;;;;;;;;;;;;;;;18.38;70.55;101588.78;4931380;29;2667;-78
2023/08/19 05:54:47;;;;;;;;;;;;;;;18.35;70.79;101592.84;4933811;29;3188;-78
2023/08/19 05:57:39;;;;;;;;;;;;;;;18.36;70.64;101589.03;4942385;29;2844;-78
2023/08/19 06:00:31;;;;;;;;;;;;;;;18.36;70.78;101591.75;4933387;29;1744;-78
2023/08/19 06:03:23;;;;;;;;;;;;;;;18.36;70.83;101591.75;4935959;29;1450;-77
2023/08/19 06:06:16;;;;;;;;;;;;;;;18.36;70.72;101607.31;4934972;29;1903;-77
2023/08/19 06:09:07;;;;;;;;;;;;;;;18.36;70.71;101599.13;4937762;29;1654;-77
2023/08/19 06:11:59;;;;;;;;;;;;;;;18.35;70.68;101595.56;4935008;29;1545;-79
2023/08/19 06:14:51;;;;;;;;;;;;;;;18.34;70.72;101596.63;4930020;29;2449;-77
2023/08/19 06:17:43;;;;;;;;;;;;;;;18.35;70.65;101597.44;4922902;29;2815;-78
2023/08/19 06:20:35;;;;;;;;;;;;;;;18.33;70.74;101600.44;4923019;29;2847;-77
2023/08/19 06:23:28;;;;;;;;;;;;;;;18.34;70.95;101610.25;4923021;29;2505;-78
2023/08/19 06:26:20;;;;;;;;;;;;;;;18.34;70.69;101610.25;4920523;29;2495;-79
2023/08/19 06:29:12;;;;;;;;;;;;;;;18.13;70.49;101576.34;4916389;29;4317;-79
2023/08/19 06:32:04;;;;;;;;;;;;;;;18.33;70.47;101608.63;4919387;29;2875;-76
2023/08/19 06:34:56;;;;;;;;;;;;;;;18.34;70.73;101604.81;4917373;29;3078;-77
2023/08/19 06:37:48;;;;;;;;;;;;;;;18.33;70.73;101603.16;4917401;29;2892;-79
2023/08/19 06:40:39;;;;;;;;;;;;;;;18.33;70.64;101596.88;4923344;29;3616;-78
2023/08/19 06:43:31;;;;;;;;;;;;;;;18.32;70.71;101601.50;4928687;29;2574;-77
2023/08/19 06:46:23;;;;;;;;;;;;;;;18.32;70.73;101604.25;4928044;29;2588;-77
2023/08/19 06:49:15;;;;;;;;;;;;;;;18.33;70.65;101605.06;4920505;29;3722;-77
2023/08/19 06:52:07;;;;;;;;;;;;;;;18.33;70.62;101599.63;4925256;29;2273;-77
2023/08/19 06:54:59;;;;;;;;;;;;;;;18.33;70.55;101596.88;4920611;29;2281;-77
2023/08/19 06:57:51;;;;;;;;;;;;;;;18.32;70.49;101596.06;4918862;29;2477;-78
2023/08/19 07:00:43;;;;;;;;;;;;;;;18.32;70.71;101601.50;4920461;29;2314;-77
2023/08/19 07:03:36;;;;;;;;;;;;;;;18.32;70.67;101598.78;4919343;29;2244;-78
2023/08/19 07:06:27;;;;;;;;;;;;;;;18.32;70.57;101601.50;4921269;29;2243;-79
2023/08/19 07:09:18;;;;;;;;;;;;;;;18.31;70.69;101602.56;4920382;29;2292;-77
2023/08/19 07:12:10;;;;;;;;;;;;;;;18.32;70.45;101608.84;4920404;29;2367;-78
2023/08/19 07:15:02;;;;;;;;;;;;;;;18.32;70.76;101600.66;4920295;29;2255;-78
2023/08/19 07:17:54;;;;;;;;;;;;;;;18.31;70.71;101597.13;4919519;29;2506;-77
2023/08/19 07:20:45;;;;;;;;;;;;;;;18.30;70.72;101600.94;4921558;29;2609;-80
2023/08/19 07:23:37;;;;;;;;;;;;;;;18.31;70.77;101596.28;4921926;29;2354;-78
2023/08/19 07:26:29;;;;;;;;;;;;;;;18.31;70.78;101591.66;4915718;29;3429;-77
2023/08/19 07:29:21;;;;;;;;;;;;;;;18.31;70.55;101590.84;4918034;29;3586;-78
2023/08/19 07:32:13;;;;;;;;;;;;;;;18.31;70.63;101593.56;4927698;29;3539;-77
2023/08/19 07:35:05;;;;;;;;;;;;;;;18.31;70.42;101593.56;4930361;29;2433;-78
2023/08/19 07:37:57;;;;;;;;;;;;;;;18.30;70.41;101597.38;4929564;29;2383;-77
2023/08/19 07:40:48;;;;;;;;;;;;;;;18.30;70.60;101587.28;4928980;29;2891;-78
2023/08/19 07:43:41;;;;;;;;;;;;;;;18.29;70.40;101591.06;4924146;29;3475;-79
2023/08/19 07:46:33;;;;;;;;;;;;;;;18.30;70.56;101594.66;4921719;29;2538;-80
2023/08/19 07:49:25;;;;;;;;;;;;;;;18.30;70.47;101591.94;4919573;29;2417;-76
2023/08/19 07:52:16;;;;;;;;;;;;;;;18.30;70.48;101591.94;4919831;29;2832;-78
2023/08/19 07:55:08;;;;;;;;;;;;;;;18.30;70.61;101586.47;4917987;29;2335;-79
2023/08/19 07:58:00;;;;;;;;;;;;;;;18.30;70.63;101590.03;4920839;29;2808;-79
2023/08/19 08:00:52;;;;;;;;;;;;;;;18.29;70.64;101585.63;4920074;29;2894;-78
2023/08/19 08:03:44;;;;;;;;;;;;;;;18.29;70.37;101588.34;4920741;29;2471;-79
2023/08/19 08:06:36;;;;;;;;;;;;;;;18.29;70.57;101571.97;4918453;29;2364;-77
2023/08/19 08:09:28;;;;;;;;;;;;;;;18.29;70.65;101571.16;4918665;29;2475;-78
2023/08/19 08:12:20;;;;;;;;;;;;;;;18.29;70.53;101569.25;4919061;29;2371;-79
2023/08/19 08:15:12;;;;;;;;;;;;;;;18.29;70.35;101571.97;4926746;29;2833;-78
2023/08/19 08:18:04;;;;;;;;;;;;;;;18.29;70.63;101571.16;4916278;29;2356;-78
2023/08/19 08:20:56;;;;;;;;;;;;;;;18.29;70.21;101568.44;4931904;29;2260;-79
2023/08/19 08:23:49;;;;;;;;;;;;;;;18.29;70.57;101587.53;4930845;29;2141;-81
2023/08/19 08:26:41;;;;;;;;;;;;;;;18.29;70.59;101587.53;4919717;29;5404;-81
2023/08/19 08:29:34;;;;;;;;;;;;;;;18.29;70.38;101579.34;4917298;29;2597;-81
2023/08/19 08:32:25;;;;;;;;;;;;;;;18.28;70.61;101581.25;4921509;29;5392;-78
2023/08/19 08:35:17;;;;;;;;;;;;;;;18.28;70.67;101580.44;4924518;29;3093;-78
2023/08/19 08:38:09;;;;;;;;;;;;;;;18.28;70.39;101574.97;4932317;29;2550;-84
2023/08/19 08:41:00;;;;;;;;;;;;;;;18.28;70.63;101578.53;4927063;29;2992;-78
2023/08/19 08:43:52;;;;;;;;;;;;;;;18.29;70.69;101579.34;4920693;29;3560;-78
2023/08/19 08:46:47;;;;;;;;;;;;;;;18.28;70.37;101575.78;4931123;29;2185;-79
2023/08/19 08:49:39;;;;;;;;;;;;;;;18.28;70.29;101581.25;4937427;29;2295;-79
2023/08/19 08:52:30;;;;;;;;;;;;;;;18.29;70.51;101579.34;4921726;29;2633;-80
2023/08/19 08:55:22;;;;;;;;;;;;;;;18.27;70.52;101574.16;4919319;29;2274;-79
2023/08/19 08:58:14;;;;;;;;;;;;;;;18.29;70.49;101576.63;4920067;29;2754;-79
2023/08/19 09:01:06;;;;;;;;;;;;;;;18.28;70.41;101574.97;4927410;29;2179;-80
2023/08/19 09:03:57;;;;;;;;;;;;;;;18.28;70.33;101580.44;4926417;29;1943;-77
2023/08/19 09:06:49;;;;;;;;;;;;;;;18.28;70.47;101573.06;4931250;29;4319;-79
2023/08/19 09:09:42;;;;;;;;;;;;;;;18.28;70.44;101574.97;4938237;29;2283;-78
2023/08/19 09:12:33;;;;;;;;;;;;;;;18.29;70.46;101562.97;4937191;29;2224;-80
2023/08/19 09:15:25;;;;;;;;;;;;;;;18.28;70.30;101559.44;4938381;29;2195;-78
2023/08/19 09:18:17;;;;;;;;;;;;;;;18.29;70.55;101554.81;4938103;29;2192;-79
2023/08/19 09:21:09;;;;;;;;;;;;;;;18.29;70.25;101565.72;4930451;29;2228;-80
2023/08/19 09:24:01;;;;;;;;;;;;;;;18.28;70.14;101542.25;4932932;29;1980;-78
2023/08/19 09:26:53;;;;;;;;;;;;;;;18.29;70.10;101552.06;4930994;29;2332;-79
2023/08/19 09:29:44;;;;;;;;;;;;;;;18.29;70.38;101552.06;4939802;29;2311;-79
2023/08/19 09:32:36;;;;;;;;;;;;;;;18.28;70.57;101551.25;4940196;29;2489;-78
2023/08/19 09:35:28;;;;;;;;;;;;;;;18.29;70.59;101561.06;4935130;29;2271;-79
2023/08/19 09:38:20;;;;;;;;;;;;;;;18.29;70.45;101557.53;4932742;29;2227;-78
2023/08/19 09:41:12;;;;;;;;;;;;;;;18.28;70.47;101551.25;4926728;29;2613;-81
2023/08/19 09:44:03;;;;;;;;;;;;;;;18.29;70.55;101543.91;4924056;29;2354;-80
2023/08/19 09:46:56;;;;;;;;;;;;;;;18.30;70.33;101529.22;4924062;29;2431;-78
2023/08/19 09:49:47;;;;;;;;;;;;;;;18.29;70.51;101525.63;4919974;29;2356;-79
2023/08/19 09:52:38;;;;;;;;;;;;;;;18.29;70.49;101528.34;4920195;29;2269;-79
2023/08/19 09:55:30;;;;;;;;;;;;;;;18.29;70.40;101528.34;4927742;29;2239;-80
2023/08/19 09:58:22;;;;;;;;;;;;;;;18.30;70.63;101531.94;4932513;29;2582;-79
2023/08/19 10:01:14;;;;;;;;;;;;;;;18.29;70.21;101531.09;4931084;29;2188;-78
2023/08/19 10:04:06;;;;;;;;;;;;;;;18.30;70.44;101526.47;4930980;29;2165;-76
2023/08/19 10:06:58;;;;;;;;;;;;;;;18.30;70.63;101524.56;4933949;29;1964;-76
2023/08/19 10:09:49;;;;;;;;;;;;;;;18.30;70.36;101523.75;4935952;29;2390;-78
2023/08/19 10:12:41;;;;;;;;;;;;;;;18.31;70.25;101520.75;4934769;29;2333;-77
2023/08/19 10:15:33;;;;;;;;;;;;;;;18.32;70.27;101516.13;4933166;29;2473;-79
2023/08/19 10:18:25;;;;;;;;;;;;;;;18.31;70.09;101526.22;4934669;29;1306;-78
2023/08/19 10:21:17;;;;;;;;;;;;;;;18.32;70.55;101533.34;4931136;29;948;-77
2023/08/19 10:24:09;;;;;;;;;;;;;;;18.32;70.51;101538.78;4935484;29;2330;-78
2023/08/19 10:27:00;;;;;;;;;;;;;;;18.32;70.22;101536.06;4933641;29;2404;-77
2023/08/19 10:29:52;;;;;;;;;;;;;;;18.32;70.29;101527.03;4933682;29;2327;-76
2023/08/19 10:32:44;;;;;;;;;;;;;;;18.32;70.25;101518.84;4934731;29;2303;-77
2023/08/19 10:35:36;;;;;;;;;;;;;;;18.32;70.23;101511.53;4931522;29;2368;-78
2023/08/19 10:38:28;;;;;;;;;;;;;;;18.32;70.39;101508.81;4937073;29;2316;-79
2023/08/19 10:41:20;;;;;;;;;;;;;;;18.33;70.58;101512.34;4931508;29;2479;-77
2023/08/19 10:44:12;;;;;;;;;;;;;;;18.33;70.41;101501.44;4927236;29;2160;-78
2023/08/19 10:47:04;;;;;;;;;;;;;;;18.33;70.14;101505.00;4935157;29;2251;-76
2023/08/19 10:49:56;;;;;;;;;;;;;;;18.34;70.67;101512.09;4928467;29;2306;-77
2023/08/19 10:52:48;;;;;;;;;;;;;;;18.34;70.39;101509.34;4934375;29;2215;-78
2023/08/19 10:55:40;;;;;;;;;;;;;;;18.34;70.33;101508.53;4933079;29;2180;-77
2023/08/19 10:58:32;;;;;;;;;;;;;;;18.35;70.59;101507.44;4930368;29;1787;-78
2023/08/19 11:01:24;;;;;;;;;;;;;;;18.34;70.71;101520.25;4932043;29;2286;-77
2023/08/19 11:04:19;;;;;;;;;;;;;;;18.35;70.44;101505.56;4933762;29;2246;-78
2023/08/19 11:07:11;;;;;;;;;;;;;;;18.35;70.31;101502.00;4933992;29;1956;-77
2023/08/19 11:10:03;;;;;;;;;;;;;;;18.35;70.31;101497.41;4928857;29;2555;-77
2023/08/19 11:12:55;;;;;;;;;;;;;;;18.36;70.67;101503.66;4929320;29;2227;-77
2023/08/19 11:15:49;;;;;;;;;;;;;;;18.36;70.30;101503.66;4931600;29;2606;-77
2023/08/19 11:18:41;;;;;;;;;;;;;;;18.36;70.44;101498.22;4934419;29;2204;-79
2023/08/19 11:21:33;;;;;;;;;;;;;;;18.36;70.54;101499.03;4934363;29;2222;-77
2023/08/19 11:24:25;;;;;;;;;;;;;;;18.36;70.28;101493.59;4928692;29;2256;-76
2023/08/19 11:27:17;;;;;;;;;;;;;;;18.37;70.47;101481.59;4930746;29;2168;-76
2023/08/19 11:30:09;;;;;;;;;;;;;;;18.36;70.58;101476.41;4932154;29;2187;-76
2023/08/19 11:33:02;;;;;;;;;;;;;;;18.38;70.47;101468.78;4931079;29;1669;-79
2023/08/19 11:35:54;;;;;;;;;;;;;;;18.38;70.45;101472.34;4938542;29;2319;-76
2023/08/19 11:38:46;;;;;;;;;;;;;;;18.38;70.43;101469.63;4923995;29;2305;-78
2023/08/19 11:41:38;;;;;;;;;;;;;;;18.38;70.35;101464.19;4934354;29;2470;-77
2023/08/19 11:44:29;;;;;;;;;;;;;;;18.38;70.46;101469.63;4931644;29;2176;-77
2023/08/19 11:47:21;;;;;;;;;;;;;;;18.39;70.61;101463.09;4931772;29;2354;-76
2023/08/19 11:50:13;;;;;;;;;;;;;;;18.39;70.37;101470.44;4931186;29;2153;-79
2023/08/19 11:53:05;;;;;;;;;;;;;;;18.40;70.65;101466.63;4923860;29;2484;-78
2023/08/19 11:55:58;;;;;;;;;;;;;;;18.40;70.60;101469.38;4917843;29;2323;-76
2023/08/19 11:58:50;;;;;;;;;;;;;;;18.41;70.54;101462.00;4923139;29;2244;-76
2023/08/19 12:01:42;;;;;;;;;;;;;;;18.41;70.68;101473.72;4919810;29;2234;-80
2023/08/19 12:04:34;;;;;;;;;;;;;;;18.41;70.36;101471.00;4916766;29;2028;-79
2023/08/19 12:07:26;;;;;;;;;;;;;;;18.41;70.47;101468.28;4932447;29;2137;-76
2023/08/19 12:10:18;;;;;;;;;;;;;;;18.42;70.08;101475.41;4932622;29;2244;-78
2023/08/19 12:13:10;;;;;;;;;;;;;;;18.42;70.52;101467.22;4933383;29;1973;-77
2023/08/19 12:16:02;;;;;;;;;;;;;;;18.43;70.20;101474.31;4929916;29;2188;-78
2023/08/19 12:18:54;;;;;;;;;;;;;;;18.43;70.60;101477.03;4934830;29;2002;-78
2023/08/19 12:21:45;;;;;;;;;;;;;;;18.43;70.23;101473.50;4930100;29;2160;-79
2023/08/19 12:24:37;;;;;;;;;;;;;;;18.44;70.33;101472.41;4930950;29;1552;-78
2023/08/19 12:27:29;;;;;;;;;;;;;;;18.44;70.31;101464.22;4930446;29;2262;-78
2023/08/19 12:30:21;;;;;;;;;;;;;;;18.44;70.55;101456.03;4930714;29;2286;-77
2023/08/19 12:33:13;;;;;;;;;;;;;;;18.44;70.30;101456.03;4930849;29;1614;-79
2023/08/19 12:36:05;;;;;;;;;;;;;;;18.45;70.40;101455.81;4937177;29;2200;-80
2023/08/19 12:38:57;;;;;;;;;;;;;;;18.45;70.52;101450.34;4921793;29;2700;-79
2023/08/19 12:41:52;;;;;;;;;;;;;;;18.45;70.37;101455.81;4928198;29;4893;-77
2023/08/19 12:44:44;;;;;;;;;;;;;;;18.46;70.53;101446.53;4934634;29;2522;-78
2023/08/19 12:47:38;;;;;;;;;;;;;;;18.46;70.46;101454.72;4929541;29;2907;-77
2023/08/19 12:50:29;;;;;;;;;;;;;;;18.46;70.29;101445.72;4941337;29;2391;-80
2023/08/19 12:53:21;;;;;;;;;;;;;;;18.45;70.27;101439.44;4931084;29;5780;-79
2023/08/19 12:56:12;;;;;;;;;;;;;;;18.46;70.40;101441.09;4936546;29;2264;-77
2023/08/19 12:59:04;;;;;;;;;;;;;;;18.47;70.34;101428.28;4936376;29;5459;-77
2023/08/19 13:01:56;;;;;;;;;;;;;;;18.46;70.51;101413.81;4938812;29;2464;-78
2023/08/19 13:04:48;;;;;;;;;;;;;;;18.47;70.69;101420.94;4924472;29;2367;-79
2023/08/19 13:07:39;;;;;;;;;;;;;;;18.46;70.45;101421.19;4934816;29;2439;-78
2023/08/19 13:10:31;;;;;;;;;;;;;;;18.47;70.32;101423.66;4923042;29;3172;-77
2023/08/19 13:13:23;;;;;;;;;;;;;;;18.47;70.35;101423.66;4921612;29;2544;-78
2023/08/19 13:16:15;;;;;;;;;;;;;;;18.47;70.51;101431.00;4916419;29;3007;-78
2023/08/19 13:19:08;;;;;;;;;;;;;;;18.47;70.62;101428.28;4919018;29;2330;-76
2023/08/19 13:21:59;;;;;;;;;;;;;;;18.47;70.44;101414.63;4920430;29;2405;-77
2023/08/19 13:24:51;;;;;;;;;;;;;;;18.47;70.28;101420.94;4926817;29;2334;-78
2023/08/19 13:27:43;;;;;;;;;;;;;;;18.47;70.65;101418.22;4926918;29;2352;-76
2023/08/19 13:30:35;;;;;;;;;;;;;;;18.48;70.72;101419.03;4921015;29;2631;-79
2023/08/19 13:33:27;;;;;;;;;;;;;;;18.49;70.36;101423.41;4923775;29;2516;-77
2023/08/19 13:36:19;;;;;;;;;;;;;;;18.49;70.75;101407.84;4921386;29;2362;-77
2023/08/19 13:39:12;;;;;;;;;;;;;;;18.49;70.62;101407.03;4920411;29;2428;-80
2023/08/19 13:42:04;;;;;;;;;;;;;;;18.47;70.69;101404.56;4923302;29;2466;-78
2023/08/19 13:44:57;;;;;;;;;;;;;;;18.49;70.41;101405.13;4932650;29;2393;-77
2023/08/19 13:47:48;;;;;;;;;;;;;;;18.50;70.59;101397.75;4927812;29;2725;-77
2023/08/19 13:50:40;;;;;;;;;;;;;;;18.49;70.38;101396.94;4921475;29;2520;-78
2023/08/19 13:53:33;;;;;;;;;;;;;;;18.50;70.67;101395.03;4931608;29;2423;-81
2023/08/19 13:56:24;;;;;;;;;;;;;;;18.49;70.65;101399.66;4920687;29;2431;-77
2023/08/19 13:59:16;;;;;;;;;;;;;;;18.49;70.60;101391.50;4918217;29;2324;-79
2023/08/19 14:02:08;;;;;;;;;;;;;;;18.49;70.60;101383.31;4916234;29;2879;-78
2023/08/19 14:05:00;;;;;;;;;;;;;;;18.49;70.67;101379.75;4923729;29;2630;-77
2023/08/19 14:07:52;;;;;;;;;;;;;;;18.50;70.70;101378.66;4921850;29;2499;-81
2023/08/19 14:10:45;;;;;;;;;;;;;;;18.49;70.78;101377.03;4922285;29;2701;-82
2023/08/19 14:13:36;;;;;;;;;;;;;;;18.65;71.08;101373.44;4926074;29;2718;-91
2023/08/19 14:16:29;;;;;;;;;;;;;;;18.56;70.60;101377.66;4927726;29;2318;-84
2023/08/19 14:19:20;;;;;;;;;;;;;;;18.53;70.72;101376.28;4937311;29;2953;-83
2023/08/19 14:22:12;;;;;;;;;;;;;;;18.52;70.73;101377.34;4923257;29;2261;-83
2023/08/19 14:25:04;;;;;;;;;;;;;;;18.51;70.80;101375.69;4924246;29;2357;-83
2023/08/19 14:27:56;;;;;;;;;;;;;;;18.51;71.00;101378.44;4926154;29;2250;-84
2023/08/19 14:30:48;;;;;;;;;;;;;;;18.51;70.41;101378.44;4927094;29;2815;-83
2023/08/19 14:33:42;;;;;;;;;;;;;;;18.51;70.48;101375.69;4932202;29;2277;-84
2023/08/19 14:36:33;;;;;;;;;;;;;;;18.51;70.80;101377.63;4923436;29;2444;-83
2023/08/19 14:39:24;;;;;;;;;;;;;;;18.51;70.86;101372.97;4922727;29;2389;-84
2023/08/19 14:42:16;;;;;;;;;;;;;;;18.52;70.94;101385.53;4924762;29;2448;-82
2023/08/19 14:45:08;;;;;;;;;;;;;;;18.53;70.81;101379.00;4925365;29;2622;-83
2023/08/19 14:48:01;;;;;;;;;;;;;;;18.52;70.94;101371.06;4923149;29;2361;-83
2023/08/19 14:50:53;;;;;;;;;;;;;;;18.51;70.80;101363.97;4929220;29;2356;-84
2023/08/19 14:53:44;;;;;;;;;;;;;;;18.52;70.88;101362.88;4924958;29;2216;-83
2023/08/19 14:56:37;;;;;;;;;;;;;;;18.51;70.74;101353.88;4929025;29;2164;-84